Time;durP1;ratioP1;P1;durP2;ratioP2;P2;SDS_P1;SDS_P2;PMS_P1;PMS_P2;Temp;Humidity;BMP_temperature;BMP_pressure;BME280_temperature;BME280_humidity;BME280_pressure;Samples;Min_cycle;Max_cycle;Signal;HPM_P1;HPM_P2
2022/05/21 00:02:04;;;;;;;7.78;6.78;;;14.40;98.10;;;;;;10399296;28;20276;-79
2022/05/21 00:07:26;;;;;;;11.65;7.18;;;14.40;94.00;;;;;;10380804;28;20210;-80
2022/05/21 00:12:47;;;;;;;7.82;6.32;;;14.40;95.80;;;;;;10395462;28;20516;-80
2022/05/21 00:18:10;;;;;;;8.02;6.60;;;14.40;87.40;;;;;;10393975;28;20226;-80
2022/05/21 00:23:34;;;;;;;11.15;7.05;;;14.50;88.20;;;;;;10396194;28;20236;-79
2022/05/21 00:28:56;;;;;;;11.13;6.70;;;14.40;93.20;;;;;;10402798;28;20203;-80
2022/05/21 00:34:18;;;;;;;10.80;7.57;;;14.50;98.80;;;;;;10402736;28;20228;-79
2022/05/21 00:39:39;;;;;;;9.45;7.95;;;14.50;99.90;;;;;;10402537;28;20201;-80
2022/05/21 00:45:01;;;;;;;12.55;8.02;;;14.50;99.90;;;;;;10401274;28;20204;-79
2022/05/21 00:50:27;;;;;;;9.60;7.80;;;14.40;99.90;;;;;;10402194;28;20195;-80
2022/05/21 00:55:51;;;;;;;9.52;7.93;;;14.30;99.90;;;;;;10387402;28;20222;-79
2022/05/21 01:01:14;;;;;;;9.73;8.70;;;14.30;99.90;;;;;;10411759;28;20246;-80
2022/05/21 01:06:36;;;;;;;11.13;8.40;;;14.20;99.90;;;;;;10417157;28;20381;-80
2022/05/21 01:11:58;;;;;;;9.48;7.65;;;14.30;99.90;;;;;;10400260;28;20195;-80
2022/05/21 01:17:21;;;;;;;9.25;7.95;;;14.20;99.90;;;;;;10401421;28;20413;-80
2022/05/21 01:22:47;;;;;;;11.32;8.40;;;14.20;99.90;;;;;;10399608;28;20276;-78
2022/05/21 01:28:14;;;;;;;11.88;8.35;;;14.20;99.90;;;;;;10399840;28;20491;-79
2022/05/21 01:33:38;;;;;;;9.77;8.10;;;14.10;99.90;;;;;;10347549;28;20240;-79
2022/05/21 01:38:59;;;;;;;12.38;8.98;;;14.10;99.90;;;;;;10357843;28;20228;-79
2022/05/21 01:44:38;;;;;;;10.73;8.57;;;14.00;99.90;;;;;;10385440;28;20258;-79
2022/05/21 01:50:00;;;;;;;11.20;9.23;;;14.00;99.90;;;;;;10399738;28;20284;-79
2022/05/21 01:55:21;;;;;;;12.32;9.27;;;14.00;99.90;;;;;;10399578;28;20243;-79
2022/05/21 02:00:43;;;;;;;11.32;9.43;;;13.90;99.90;;;;;;10391297;28;20207;-79
2022/05/21 02:06:04;;;;;;;12.13;10.00;;;13.90;99.90;;;;;;10405187;28;20226;-79
2022/05/21 02:11:26;;;;;;;11.32;9.82;;;14.00;99.90;;;;;;10397771;28;20196;-79
2022/05/21 02:16:47;;;;;;;11.50;9.45;;;14.00;99.90;;;;;;10398164;28;20409;-78
2022/05/21 02:22:09;;;;;;;10.88;9.60;;;14.00;99.90;;;;;;10383229;28;20204;-79
2022/05/21 02:27:30;;;;;;;10.75;9.38;;;14.00;99.90;;;;;;10397253;28;20212;-79
2022/05/21 02:32:52;;;;;;;11.77;9.38;;;14.10;99.90;;;;;;10385117;28;20227;-80
2022/05/21 02:43:54;;;;;;;12.13;10.13;;;14.10;99.90;;;;;;10398303;28;20211;-79
2022/05/21 02:49:15;;;;;;;12.75;10.23;;;14.00;99.90;;;;;;10396869;28;20192;-79
2022/05/21 02:54:38;;;;;;;12.07;9.68;;;14.00;99.90;;;;;;10396153;28;20216;-79
2022/05/21 03:00:01;;;;;;;13.75;10.63;;;14.10;99.90;;;;;;10378955;28;20230;-80
2022/05/21 03:05:25;;;;;;;11.93;10.00;;;14.00;99.90;;;;;;10422454;28;20230;-80
2022/05/21 03:10:46;;;;;;;14.73;11.07;;;14.00;99.90;;;;;;10381780;28;20238;-79
2022/05/21 03:16:07;;;;;;;13.95;11.35;;;14.00;99.90;;;;;;10396893;28;20226;-79
2022/05/21 03:21:29;;;;;;;12.52;10.18;;;13.90;99.90;;;;;;10395481;28;20192;-79
2022/05/21 03:26:51;;;;;;;12.63;10.68;;;13.90;99.90;;;;;;10395684;28;20203;-79
2022/05/21 03:32:12;;;;;;;13.13;11.07;;;14.00;99.90;;;;;;10395767;28;20191;-79
2022/05/21 03:37:36;;;;;;;13.45;10.30;;;14.00;99.90;;;;;;10396078;28;20234;-79
2022/05/21 03:42:58;;;;;;;21.45;12.20;;;14.20;99.90;;;;;;10355586;28;20196;-79
2022/05/21 03:48:20;;;;;;;19.33;12.27;;;14.20;99.90;;;;;;10358803;28;20193;-79
2022/05/21 03:53:42;;;;;;;16.10;12.55;;;13.90;99.90;;;;;;10395489;28;20213;-78
2022/05/21 03:59:03;;;;;;;15.82;11.45;;;13.80;99.90;;;;;;10384435;28;20281;-78
2022/05/21 04:04:24;;;;;;;16.08;11.77;;;13.70;99.90;;;;;;10432779;28;20245;-78
2022/05/21 04:09:45;;;;;;;17.58;14.35;;;13.70;99.90;;;;;;10403512;28;20201;-79
2022/05/21 04:15:07;;;;;;;14.05;11.50;;;13.60;99.90;;;;;;10402672;28;20583;-78
2022/05/21 04:20:29;;;;;;;14.95;12.23;;;13.70;99.90;;;;;;10388263;28;20199;-79
2022/05/21 04:25:50;;;;;;;16.55;12.57;;;13.60;99.90;;;;;;10403433;28;20273;-79
2022/05/21 04:31:11;;;;;;;15.80;12.73;;;13.60;99.90;;;;;;10401749;28;20200;-78
2022/05/21 04:36:33;;;;;;;12.65;10.57;;;13.70;99.90;;;;;;10387745;28;20247;-79
2022/05/21 04:41:54;;;;;;;15.20;11.48;;;13.70;99.90;;;;;;10401260;28;20201;-79
2022/05/21 04:47:15;;;;;;;12.23;10.93;;;13.80;99.90;;;;;;10388120;28;20394;-79
2022/05/21 04:52:38;;;;;;;11.77;9.13;;;13.90;99.90;;;;;;10402114;28;20232;-78
2022/05/21 04:58:00;;;;;;;10.60;9.57;;;13.90;99.90;;;;;;10401253;28;20534;-78
2022/05/21 05:03:21;;;;;;;12.57;10.75;;;14.00;99.90;;;;;;10431867;28;20199;-79
2022/05/21 05:08:42;;;;;;;15.18;10.85;;;14.00;99.90;;;;;;10398725;28;20486;-80
2022/05/21 05:14:04;;;;;;;12.88;11.18;;;14.00;99.90;;;;;;10400248;28;20302;-79
2022/05/21 05:19:29;;;;;;;10.43;9.32;;;14.10;99.90;;;;;;10400590;28;20220;-79
2022/05/21 05:24:51;;;;;;;12.43;9.15;;;14.10;99.90;;;;;;10399917;28;20241;-79
2022/05/21 05:30:14;;;;;;;9.07;8.18;;;14.10;99.90;;;;;;10399820;28;20205;-79
2022/05/21 05:35:36;;;;;;;9.20;5.95;;;14.20;99.90;;;;;;10374676;28;20248;-79
2022/05/21 05:40:57;;;;;;;7.38;4.28;;;14.30;99.90;;;;;;10385555;28;20287;-78
2022/05/21 05:46:19;;;;;;;3.30;3.00;;;14.20;99.90;;;;;;10385606;28;20482;-79
2022/05/21 05:51:40;;;;;;;7.70;1.50;;;14.20;99.90;;;;;;10385452;28;20286;-80
2022/05/21 05:57:02;;;;;;;5.07;2.05;;;14.10;99.90;;;;;;10398479;28;20671;-80
2022/05/21 06:08:07;;;;;;;2.33;1.60;;;14.00;99.90;;;;;;10402957;28;20201;-79
2022/05/21 06:13:30;;;;;;;4.10;1.42;;;14.00;99.90;;;;;;10384446;28;20211;-79
2022/05/21 06:18:52;;;;;;;1.92;1.00;;;13.90;99.90;;;;;;10397578;28;20217;-79
2022/05/21 06:24:13;;;;;;;2.92;1.02;;;13.90;99.90;;;;;;10398609;28;20204;-78
2022/05/21 06:29:36;;;;;;;2.10;1.02;;;13.70;99.90;;;;;;10398695;28;20200;-79
2022/05/21 06:34:57;;;;;;;1.17;0.93;;;13.60;99.90;;;;;;10396997;28;20228;-79
2022/05/21 06:40:19;;;;;;;1.40;1.30;;;13.40;99.90;;;;;;10397584;28;20383;-78
2022/05/21 06:45:40;;;;;;;2.60;1.73;;;13.30;99.90;;;;;;10396763;28;20284;-79
2022/05/21 06:51:05;;;;;;;2.00;1.67;;;13.20;99.90;;;;;;10382954;28;20232;-79
2022/05/21 06:56:27;;;;;;;3.15;1.13;;;13.10;99.90;;;;;;10397006;28;20229;-79
2022/05/21 07:01:48;;;;;;;1.23;1.10;;;13.10;99.90;;;;;;10397016;28;20267;-78
2022/05/21 07:12:50;;;;;;;1.93;0.80;;;13.20;99.90;;;;;;10395985;28;20491;-79
2022/05/21 07:18:15;;;;;;;2.43;0.50;;;13.40;99.90;;;;;;10395314;28;20233;-80
2022/05/21 07:23:36;;;;;;;1.67;0.70;;;13.40;99.90;;;;;;10381986;28;20257;-80
2022/05/21 07:28:58;;;;;;;0.73;0.70;;;13.30;99.90;;;;;;10396461;28;20196;-80
2022/05/21 07:34:19;;;;;;;0.40;0.40;;;13.30;99.90;;;;;;10367064;28;20576;-78
2022/05/21 07:39:41;;;;;;;3.88;1.17;;;13.20;99.90;;;;;;10383683;28;20232;-80
2022/05/21 07:45:05;;;;;;;7.75;1.50;;;13.20;99.90;;;;;;10395790;28;20409;-79
2022/05/21 07:50:27;;;;;;;6.70;0.70;;;13.20;99.90;;;;;;10381222;28;20283;-78
2022/05/21 07:55:50;;;;;;;1.70;0.80;;;13.30;99.90;;;;;;10394539;28;20223;-78
2022/05/21 08:01:13;;;;;;;2.40;0.50;;;13.40;99.90;;;;;;10404599;28;20204;-79
2022/05/21 08:06:38;;;;;;;1.47;0.73;;;13.40;99.90;;;;;;10417821;28;20199;-79
2022/05/21 08:11:59;;;;;;;2.08;1.20;;;13.20;99.90;;;;;;10393180;28;20521;-79
2022/05/21 08:17:20;;;;;;;2.47;0.68;;;13.20;99.90;;;;;;10394032;28;20449;-79
2022/05/21 08:28:22;;;;;;;2.03;0.40;;;13.60;99.90;;;;;;10390311;28;20204;-79
2022/05/21 08:33:43;;;;;;;4.40;0.85;;;13.50;99.90;;;;;;10390855;28;20523;-78
2022/05/21 08:39:05;;;;;;;4.18;0.77;;;13.40;99.90;;;;;;10391946;28;20221;-80
2022/05/21 08:44:51;;;;;;;4.65;0.82;;;13.20;99.90;;;;;;10394843;28;20204;-80
2022/05/21 08:50:20;;;;;;;4.10;0.50;;;13.10;99.90;;;;;;10393116;28;20193;-80
2022/05/21 08:55:45;;;;;;;3.90;1.05;;;13.00;99.90;;;;;;10401442;28;20215;-80
2022/05/21 09:01:06;;;;;;;3.90;1.20;;;13.00;99.90;;;;;;10411459;28;20238;-79
2022/05/21 09:06:28;;;;;;;0.30;0.30;;;12.90;88.10;;;;;;10404408;28;20558;-80
2022/05/21 09:12:25;;;;;;;2.93;0.77;;;12.70;97.60;;;;;;10401662;28;20276;-81
2022/05/21 09:17:47;;;;;;;0.73;0.70;;;12.70;99.90;;;;;;10342033;28;20412;-80
2022/05/21 09:23:11;;;;;;;1.27;0.60;;;12.70;90.40;;;;;;10317175;28;20553;-80
2022/05/21 09:28:37;;;;;;;0.50;0.40;;;12.80;97.20;;;;;;10320287;28;20205;-79
2022/05/21 09:34:33;;;;;;;1.02;0.63;;;12.70;93.70;;;;;;10340353;28;20241;-80
2022/05/21 09:39:55;;;;;;;0.50;0.40;;;12.70;99.90;;;;;;10205409;29;20239;-80
2022/05/21 09:45:22;;;;;;;0.43;0.30;;;12.70;99.90;;;;;;10197080;29;20279;-79
2022/05/21 09:50:45;;;;;;;0.30;0.30;;;12.90;99.90;;;;;;10231532;29;20215;-80
2022/05/21 09:56:08;;;;;;;2.08;0.43;;;13.00;92.60;;;;;;10258459;28;20249;-79
2022/05/21 10:01:36;;;;;;;1.95;0.98;;;13.20;62.40;;;;;;10287885;28;20291;-80
2022/05/21 10:13:14;;;;;;;0.75;0.60;;;13.30;44.80;;;;;;10265465;28;20208;-79
2022/05/21 10:18:51;;;;;;;0.50;0.50;;;13.20;53.20;;;;;;10354617;28;20302;-79
2022/05/21 10:24:26;;;;;;;0.47;0.40;;;13.00;99.90;;;;;;10354697;28;20225;-78
2022/05/21 10:30:06;;;;;;;2.53;0.53;;;12.70;99.90;;;;;;10338111;28;20398;-79
2022/05/21 10:35:52;;;;;;;0.50;0.50;;;12.80;99.90;;;;;;10323906;28;20225;-79
2022/05/21 10:41:48;;;;;;;2.00;0.67;;;12.90;99.90;;;;;;10340698;28;20228;-79
2022/05/21 10:47:50;;;;;;;1.45;0.68;;;13.10;99.90;;;;;;10349449;28;20281;-78
2022/05/21 10:53:36;;;;;;;1.00;0.47;;;13.30;99.90;;;;;;10347803;28;20561;-79
2022/05/21 10:59:10;;;;;;;1.48;0.47;;;13.30;82.40;;;;;;10397488;28;20236;-79
2022/05/21 11:05:16;;;;;;;1.20;0.50;;;13.10;99.90;;;;;;10427435;28;20426;-79
2022/05/21 11:10:49;;;;;;;0.83;0.60;;;12.80;99.90;;;;;;10409313;28;20286;-78
2022/05/21 11:16:13;;;;;;;0.68;0.60;;;12.60;99.90;;;;;;10434531;28;20255;-78
2022/05/21 11:21:39;;;;;;;2.23;0.90;;;12.50;99.90;;;;;;10336416;28;20249;-78
2022/05/21 11:27:36;;;;;;;0.80;0.80;;;12.60;99.90;;;;;;10363136;28;20246;-78
2022/05/21 11:38:50;;;;;;;33.07;25.17;;;12.50;99.90;;;;;;10384165;28;20405;-78
2022/05/21 11:50:03;;;;;;;3.38;1.90;;;13.00;99.90;;;;;;10370457;28;20246;-78
2022/05/21 11:55:30;;;;;;;3.05;1.90;;;13.20;96.40;;;;;;10350586;28;20565;-78
2022/05/21 12:00:52;;;;;;;2.47;1.52;;;13.10;92.10;;;;;;10394887;28;20206;-78
2022/05/21 12:06:30;;;;;;;4.75;1.52;;;12.90;99.90;;;;;;10399906;28;20219;-78
2022/05/21 12:11:52;;;;;;;6.17;4.03;;;12.60;99.90;;;;;;10396097;28;20551;-78
2022/05/21 12:17:44;;;;;;;17.30;10.48;;;12.90;99.90;;;;;;10394283;28;20271;-79
2022/05/21 12:23:05;;;;;;;8.27;5.97;;;13.60;99.90;;;;;;10403305;28;20196;-79
2022/05/21 12:28:38;;;;;;;6.53;3.20;;;13.70;99.90;;;;;;10402098;28;20195;-79
2022/05/21 12:41:26;;;;;;;5.82;3.67;;;13.30;97.20;;;;;;10318409;28;20268;-79
2022/05/21 12:54:22;;;;;;;9.35;6.55;;;13.00;90.00;;;;;;10357944;28;20272;-78
2022/05/21 12:59:43;;;;;;;6.15;3.83;;;13.30;88.20;;;;;;10344641;28;20792;-79
2022/05/21 13:05:07;;;;;;;9.00;3.80;;;13.30;47.80;;;;;;10342618;28;20301;-79
2022/05/21 13:10:33;;;;;;;5.80;2.33;;;13.30;33.30;;;;;;10354649;28;20443;-78
2022/05/21 13:16:01;;;;;;;4.53;2.47;;;13.20;42.60;;;;;;10365101;28;20203;-78
2022/05/21 13:21:53;;;;;;;2.63;1.50;;;13.40;38.80;;;;;;10399925;28;20487;-78
2022/05/21 13:27:20;;;;;;;4.45;1.20;;;13.30;24.30;;;;;;10399957;28;20200;-78
2022/05/21 13:32:41;;;;;;;4.18;1.17;;;13.40;18.40;;;;;;10398680;28;20279;-79
2022/05/21 13:38:06;;;;;;;2.33;1.07;;;13.60;1.00;;;;;;10400604;28;20216;-78
2022/05/21 13:43:35;;;;;;;7.47;1.30;;;14.00;1.00;;;;;;10400799;28;20191;-79
2022/05/21 13:49:00;;;;;;;3.88;1.02;;;14.30;1.00;;;;;;10399690;28;20199;-78
2022/05/21 13:54:28;;;;;;;3.83;0.90;;;14.20;1.00;;;;;;10399066;28;20555;-79
2022/05/21 13:59:59;;;;;;;6.68;1.10;;;14.10;1.00;;;;;;10399002;28;20249;-79
2022/05/21 14:05:30;;;;;;;5.88;1.30;;;14.00;1.00;;;;;;10372752;28;20194;-79
2022/05/21 14:11:05;;;;;;;2.67;1.33;;;13.80;1.00;;;;;;10398852;28;20203;-78
2022/05/21 14:16:34;;;;;;;5.60;1.52;;;13.80;1.00;;;;;;10398392;28;20446;-79
2022/05/21 14:22:12;;;;;;;5.10;1.55;;;13.60;1.00;;;;;;10398574;28;20254;-79
2022/05/21 14:27:33;;;;;;;7.35;1.40;;;13.60;1.00;;;;;;10398163;28;20216;-78
2022/05/21 14:32:55;;;;;;;3.33;1.25;;;13.80;1.00;;;;;;10397400;28;20300;-79
2022/05/21 14:38:23;;;;;;;5.75;1.70;;;13.80;1.00;;;;;;10398727;28;20268;-79
2022/05/21 14:43:44;;;;;;;4.25;1.63;;;13.60;1.00;;;;;;10398151;28;20198;-79
2022/05/21 14:49:06;;;;;;;5.10;1.77;;;13.40;30.80;;;;;;10398374;28;20497;-78
2022/05/21 14:54:28;;;;;;;5.00;2.10;;;13.30;82.90;;;;;;10396868;28;20430;-79
2022/05/21 14:59:50;;;;;;;6.72;2.85;;;13.30;58.50;;;;;;10396240;28;20450;-79
2022/05/21 15:05:15;;;;;;;4.90;2.60;;;13.30;70.70;;;;;;10370396;28;20204;-78
2022/05/21 15:10:36;;;;;;;5.28;2.42;;;13.20;59.60;;;;;;10396066;28;20195;-79
2022/05/21 15:15:57;;;;;;;7.32;2.72;;;13.30;86.90;;;;;;10396847;28;20269;-78
2022/05/21 15:21:22;;;;;;;3.97;2.10;;;13.30;59.50;;;;;;10381808;28;20194;-79
2022/05/21 15:26:46;;;;;;;4.80;2.20;;;13.30;43.10;;;;;;10395745;28;20201;-79
2022/05/21 15:32:08;;;;;;;8.60;2.08;;;13.40;39.00;;;;;;10396237;28;20214;-79
2022/05/21 15:37:29;;;;;;;6.30;2.20;;;13.50;71.00;;;;;;10395786;28;20229;-79
2022/05/21 15:42:52;;;;;;;7.60;2.78;;;13.40;73.60;;;;;;10396166;28;20426;-79
2022/05/21 15:48:17;;;;;;;9.88;2.42;;;13.40;99.90;;;;;;10395860;28;20203;-79
2022/05/21 15:53:38;;;;;;;5.72;2.47;;;13.40;99.90;;;;;;10394909;28;20206;-79
2022/05/21 15:58:59;;;;;;;4.18;1.73;;;13.30;99.90;;;;;;10380836;28;20458;-79
2022/05/21 16:04:20;;;;;;;6.05;1.75;;;13.30;99.90;;;;;;10425492;28;20415;-79
2022/05/21 16:09:42;;;;;;;6.32;2.35;;;13.20;99.90;;;;;;10394548;28;20209;-79
2022/05/21 16:15:06;;;;;;;6.15;2.33;;;13.10;99.90;;;;;;10395614;28;20202;-78
2022/05/21 16:20:28;;;;;;;5.90;2.97;;;13.00;99.90;;;;;;10380812;28;20272;-78
2022/05/21 16:25:50;;;;;;;7.60;3.55;;;12.90;99.90;;;;;;10394861;28;20188;-79
2022/05/21 16:31:11;;;;;;;5.53;3.17;;;12.70;99.90;;;;;;10395093;28;20192;-79
2022/05/21 16:36:32;;;;;;;7.53;3.20;;;12.50;99.90;;;;;;10395087;28;20240;-79
2022/05/21 16:41:53;;;;;;;5.93;2.58;;;12.40;99.90;;;;;;10395470;28;20193;-79
2022/05/21 16:47:15;;;;;;;5.57;2.67;;;12.30;99.90;;;;;;10394235;28;20199;-79
2022/05/21 16:52:38;;;;;;;5.68;3.25;;;12.30;99.90;;;;;;10395045;28;20223;-79
2022/05/21 16:58:00;;;;;;;8.77;3.10;;;12.30;99.90;;;;;;10393493;28;20601;-79
2022/05/21 17:03:21;;;;;;;7.13;2.57;;;12.30;99.90;;;;;;10421794;28;20195;-79
2022/05/21 17:08:42;;;;;;;5.07;2.90;;;12.40;99.90;;;;;;10347827;28;20215;-80
2022/05/21 17:14:04;;;;;;;4.30;2.40;;;12.30;99.90;;;;;;10361400;28;20197;-79
2022/05/21 17:19:25;;;;;;;5.05;3.03;;;12.40;99.90;;;;;;10361103;28;20248;-79
2022/05/21 17:24:47;;;;;;;10.10;2.97;;;12.40;99.90;;;;;;10360489;28;20243;-79
2022/05/21 17:36:18;;;;;;;6.63;3.27;;;12.40;99.90;;;;;;10399427;28;20233;-79
2022/05/21 17:41:37;;;;;;;6.70;3.22;;;12.40;99.90;;;;;;10386018;28;20246;-79
2022/05/21 17:46:58;;;;;;;7.40;2.63;;;12.30;99.90;;;;;;10400753;28;20189;-79
2022/05/21 17:52:20;;;;;;;5.03;2.60;;;12.30;99.90;;;;;;10399493;28;20314;-79
2022/05/21 17:57:42;;;;;;;5.90;2.83;;;12.30;99.90;;;;;;10398898;28;20263;-79
2022/05/21 18:03:05;;;;;;;5.90;2.60;;;12.20;99.90;;;;;;10425291;28;20199;-79
2022/05/21 18:08:31;;;;;;;8.57;2.10;;;12.20;99.90;;;;;;10398302;28;20279;-79
2022/05/21 18:13:52;;;;;;;7.40;2.30;;;12.20;99.90;;;;;;10399607;28;20203;-79
2022/05/21 18:19:20;;;;;;;6.67;2.57;;;12.20;99.90;;;;;;10398974;28;20294;-78
2022/05/21 18:24:41;;;;;;;5.57;2.93;;;12.10;99.90;;;;;;10398647;28;20758;-79
2022/05/21 18:30:04;;;;;;;7.97;2.60;;;12.10;99.90;;;;;;10397580;28;20483;-78
2022/05/21 18:35:25;;;;;;;7.67;2.67;;;12.10;99.90;;;;;;10397131;28;20243;-79
2022/05/21 18:40:47;;;;;;;6.37;2.60;;;12.10;99.90;;;;;;10397359;28;20243;-79
2022/05/21 18:46:12;;;;;;;8.07;2.30;;;12.10;99.90;;;;;;10397302;28;20247;-79
2022/05/21 18:51:36;;;;;;;3.17;1.85;;;12.00;99.90;;;;;;10397505;28;20192;-79
2022/05/21 18:57:04;;;;;;;5.45;2.30;;;12.00;99.90;;;;;;10396237;28;20230;-79
2022/05/21 19:02:28;;;;;;;4.70;1.97;;;12.00;99.90;;;;;;10418248;28;20203;-79
2022/05/21 19:07:53;;;;;;;6.07;1.90;;;11.90;99.90;;;;;;10402718;28;20279;-79
2022/05/21 19:13:17;;;;;;;2.50;1.50;;;11.90;99.90;;;;;;10382562;28;20418;-79
2022/05/21 19:24:25;;;;;;;6.57;2.10;;;11.80;99.90;;;;;;10396653;28;20200;-79
2022/05/21 19:29:47;;;;;;;7.20;2.45;;;11.70;99.90;;;;;;10354631;28;20556;-80
2022/05/21 19:35:11;;;;;;;3.73;1.90;;;11.80;99.90;;;;;;10355689;28;20237;-79
2022/05/21 19:46:14;;;;;;;5.03;2.67;;;11.70;99.90;;;;;;10354370;28;20437;-79
2022/05/21 19:51:36;;;;;;;2.20;1.40;;;11.70;99.90;;;;;;10365149;28;20203;-79
2022/05/21 19:56:59;;;;;;;5.13;1.97;;;11.60;99.90;;;;;;10395156;28;20231;-79
2022/05/21 20:02:22;;;;;;;5.50;2.60;;;11.60;99.90;;;;;;10414034;28;20202;-79
2022/05/21 20:07:45;;;;;;;3.60;2.40;;;11.50;99.90;;;;;;10401463;28;20254;-79
2022/05/21 20:13:07;;;;;;;5.60;3.00;;;11.50;99.90;;;;;;10395041;28;20275;-78
2022/05/21 20:18:29;;;;;;;3.97;2.63;;;11.50;99.90;;;;;;10395620;28;20228;-78
2022/05/21 20:23:50;;;;;;;4.70;1.83;;;11.40;99.90;;;;;;10394213;28;20394;-78
2022/05/21 20:29:12;;;;;;;5.77;2.33;;;11.50;99.90;;;;;;10381297;28;20195;-79
2022/05/21 20:34:33;;;;;;;7.13;3.77;;;11.40;99.90;;;;;;10379897;28;20290;-79
2022/05/21 20:40:01;;;;;;;2.93;1.97;;;11.40;99.90;;;;;;10383198;28;20522;-79
2022/05/21 20:45:23;;;;;;;3.63;1.30;;;11.40;99.90;;;;;;10402651;28;20496;-79
2022/05/21 20:50:44;;;;;;;2.77;1.90;;;11.50;99.90;;;;;;10387305;28;20215;-78
2022/05/21 20:56:07;;;;;;;4.37;1.90;;;11.40;99.90;;;;;;10402273;28;20197;-79
2022/05/21 21:01:28;;;;;;;3.70;1.90;;;11.40;99.90;;;;;;10413199;28;20224;-79
2022/05/21 21:06:50;;;;;;;4.47;2.37;;;11.40;99.90;;;;;;10416630;28;20193;-77
2022/05/21 21:12:11;;;;;;;2.63;1.50;;;11.40;99.90;;;;;;10402076;28;20229;-77
2022/05/21 21:17:32;;;;;;;3.60;1.30;;;11.40;99.90;;;;;;10386679;28;20244;-77
2022/05/21 21:22:54;;;;;;;2.40;1.37;;;11.30;99.90;;;;;;10400674;28;20243;-77
2022/05/21 21:28:17;;;;;;;3.17;1.43;;;11.40;99.90;;;;;;10401927;28;20195;-79
2022/05/21 21:33:38;;;;;;;1.50;1.30;;;11.30;99.90;;;;;;10386173;28;20248;-77
2022/05/21 21:38:59;;;;;;;4.63;1.67;;;11.30;99.90;;;;;;10399997;28;20232;-77
2022/05/21 21:44:21;;;;;;;2.07;1.40;;;11.30;99.90;;;;;;10400927;28;20430;-77
2022/05/21 21:49:43;;;;;;;2.03;1.20;;;11.30;99.90;;;;;;10399292;28;20200;-77
2022/05/21 21:55:06;;;;;;;2.23;1.40;;;11.30;99.90;;;;;;10380998;28;20458;-77
2022/05/21 22:06:27;;;;;;;2.33;1.50;;;11.30;99.90;;;;;;10416629;28;20401;-79
2022/05/21 22:11:48;;;;;;;2.63;1.20;;;11.40;99.90;;;;;;10398834;28;20486;-79
2022/05/21 22:17:09;;;;;;;2.67;1.60;;;11.40;99.90;;;;;;10370921;28;20386;-79
2022/05/21 22:22:30;;;;;;;2.47;1.40;;;11.50;99.90;;;;;;10399093;28;20200;-78
2022/05/21 22:27:52;;;;;;;2.00;1.30;;;11.40;99.90;;;;;;10399353;28;20195;-79
2022/05/21 22:33:15;;;;;;;2.17;1.30;;;11.30;99.90;;;;;;10381837;28;20311;-79
2022/05/21 22:38:36;;;;;;;1.40;1.30;;;11.30;99.90;;;;;;10398531;28;20223;-79
2022/05/21 22:43:58;;;;;;;2.67;1.57;;;11.30;99.90;;;;;;10397418;28;20190;-78
2022/05/21 22:49:20;;;;;;;3.53;1.57;;;11.30;99.90;;;;;;10397066;28;20250;-78
2022/05/21 22:54:41;;;;;;;2.20;1.60;;;11.30;99.90;;;;;;10397693;28;20242;-78
2022/05/21 23:00:05;;;;;;;5.43;1.70;;;11.30;99.90;;;;;;10397010;28;20572;-79
2022/05/21 23:05:26;;;;;;;2.53;1.47;;;11.30;99.90;;;;;;10422878;28;20243;-79
2022/05/21 23:10:48;;;;;;;2.07;1.60;;;11.20;99.90;;;;;;10397514;28;20206;-79
2022/05/21 23:27:44;;;;;;;1.93;1.40;;;11.20;99.90;;;;;;10395805;28;20210;-77
2022/05/21 23:33:06;;;;;;;2.63;1.40;;;11.20;99.90;;;;;;10395556;28;20260;-78
2022/05/21 23:38:29;;;;;;;5.00;1.92;;;11.10;99.90;;;;;;10382411;28;20393;-78
2022/05/21 23:43:53;;;;;;;2.07;1.50;;;11.10;99.90;;;;;;10381998;28;20214;-79
2022/05/21 23:49:15;;;;;;;2.50;1.50;;;11.20;99.90;;;;;;10395202;28;20201;-78
2022/05/21 23:54:36;;;;;;;2.87;1.60;;;11.10;99.90;;;;;;10395889;28;20275;-79
2022/05/21 23:59:57;;;;;;;1.83;1.10;;;11.10;99.90;;;;;;10381200;28;20254;-79
